Terminal Aerodrome Forecast
Issued by NWS Caribou, ME

Home | Current Version | Previous Version | Text Only | Print | Product List | Glossary On
Versions: 1 2 3 4 5 6 7 8 9 10 11 12 13 14 15 16 17 18 19 20 21
000
FTUS41 KCAR 291700 RRA
TAFCAR
TAF
KCAR 291745Z 2918/3018 24010KT P6SM -SHRA SCT025 BKN035
     FM292100 24009KT P6SM SCT040
     FM300200 VRB03KT P6SM FEW250
     FM300700 00000KT 1SM BR FEW250
     FM300900 00000KT 1/2SM FG SCT001
     FM301100 17004KT P6SM SKC=

USA.gov is the U.S. government's official web portal to all federal, state and local government web resources and services.